createdAt,value
2022-12-11T00:01:14.502Z,109.57
2022-12-11T00:03:42.898Z,112.10
2022-12-11T00:06:14.281Z,88.85
2022-12-11T00:08:43.167Z,100.57
2022-12-11T00:11:16.486Z,81.60
2022-12-11T00:13:45.317Z,79.88
2022-12-11T00:16:15.629Z,80.72
2022-12-11T00:18:44.509Z,64.15
2022-12-11T00:21:14.460Z,72.78
2022-12-11T00:23:42.941Z,77.50
2022-12-11T00:26:16.099Z,71.53
2022-12-11T00:28:45.229Z,73.70
2022-12-11T00:31:18.697Z,68.43
2022-12-11T00:33:50.614Z,61.67
2022-12-11T00:36:21.930Z,72.93
2022-12-11T00:38:51.286Z,73.40
2022-12-11T00:41:20.407Z,65.50
2022-12-11T00:43:48.918Z,84.53
2022-12-11T00:46:17.644Z,59.83
2022-12-11T00:48:46.378Z,56.75
2022-12-11T00:51:14.833Z,54.55
2022-12-11T00:53:44.102Z,63.05
2022-12-11T00:56:15.111Z,77.53
2022-12-11T00:58:43.805Z,63.67
2022-12-11T01:01:15.450Z,68.72
2022-12-11T01:03:43.851Z,51.40
2022-12-11T01:06:15.083Z,72.32
2022-12-11T01:08:45.065Z,73.83
2022-12-11T01:11:16.480Z,62.78
2022-12-11T01:13:45.383Z,72.10
2022-12-11T01:16:16.015Z,53.55
2022-12-11T01:18:44.528Z,67.30
2022-12-11T01:21:13.979Z,59.90
2022-12-11T01:23:42.377Z,66.93
2022-12-11T01:26:13.120Z,55.40
2022-12-11T01:28:42.465Z,76.95
2022-12-11T01:31:13.040Z,54.83
2022-12-11T01:33:41.527Z,55.08
2022-12-11T01:36:12.846Z,57.25
2022-12-11T01:38:41.364Z,56.97
2022-12-11T01:41:10.391Z,67.53
2022-12-11T01:44:06.872Z,47.05
2022-12-11T01:46:37.246Z,54.40
2022-12-11T01:49:13.902Z,51.88
2022-12-11T01:51:53.043Z,52.55
2022-12-11T01:54:23.942Z,62.97
2022-12-11T01:56:54.493Z,61.92
2022-12-11T01:59:26.586Z,54.50
2022-12-11T02:02:10.988Z,55.85
2022-12-11T02:04:40.698Z,55.22
2022-12-11T02:07:10.198Z,78.95
2022-12-11T02:09:42.680Z,57.05
2022-12-11T02:12:30.809Z,54.30
2022-12-11T02:15:13.221Z,46.70
2022-12-11T02:17:54.569Z,69.70
2022-12-11T02:20:41.968Z,54.53
2022-12-11T02:23:13.158Z,49.05
2022-12-11T02:26:13.606Z,43.53
2022-12-11T02:28:55.801Z,56.20
2022-12-11T02:31:38.673Z,63.13
2022-12-11T02:34:26.246Z,57.88
2022-12-11T02:36:59.311Z,52.30
2022-12-11T02:39:29.471Z,50.08
2022-12-11T02:41:58.992Z,51.55
2022-12-11T02:44:32.879Z,47.28
2022-12-11T02:47:04.624Z,57.55
2022-12-11T02:49:34.002Z,45.40
2022-12-11T02:52:04.770Z,50.78
2022-12-11T02:54:38.061Z,51.83
2022-12-11T02:57:11.899Z,40.58
2022-12-11T02:59:43.676Z,40.90
2022-12-11T03:02:17.001Z,42.67
2022-12-11T03:04:46.563Z,53.58
2022-12-11T03:07:23.532Z,33.38
2022-12-11T03:09:52.734Z,34.88
2022-12-11T03:12:29.817Z,46.85
2022-12-11T03:15:00.966Z,39.17
2022-12-11T03:18:00.907Z,35.85
2022-12-11T03:20:45.007Z,38.65
2022-12-11T03:23:32.344Z,37.88
2022-12-11T03:26:06.608Z,44.13
2022-12-11T03:28:43.989Z,29.83
2022-12-11T03:31:27.445Z,28.23
2022-12-11T03:34:00.951Z,36.35
2022-12-11T03:36:36.572Z,35.45
2022-12-11T03:39:20.718Z,39.83
2022-12-11T03:41:50.781Z,43.90
2022-12-11T03:44:21.399Z,44.78
2022-12-11T03:46:52.660Z,31.02
2022-12-11T03:49:26.620Z,32.57
2022-12-11T03:51:58.012Z,32.10
2022-12-11T03:54:27.564Z,43.35
2022-12-11T03:56:58.254Z,34.30
2022-12-11T03:59:26.854Z,29.50
2022-12-11T04:01:55.313Z,38.97
2022-12-11T04:04:23.811Z,29.48
2022-12-11T04:06:52.179Z,26.85
2022-12-11T04:09:20.579Z,38.25
2022-12-11T04:11:48.961Z,28.30
2022-12-11T04:14:36.022Z,39.25
2022-12-11T04:17:05.437Z,29.55
2022-12-11T04:19:52.266Z,29.75
2022-12-11T04:22:38.997Z,28.05
2022-12-11T04:25:08.577Z,32.28
2022-12-11T04:27:49.271Z,23.13
2022-12-11T04:30:23.746Z,26.05
2022-12-11T04:32:53.798Z,27.55
2022-12-11T04:35:22.909Z,26.27
2022-12-11T04:37:52.721Z,22.77
2022-12-11T04:40:21.242Z,22.52
2022-12-11T04:42:49.800Z,28.35
2022-12-11T04:45:18.334Z,25.73
2022-12-11T04:47:46.789Z,25.88
2022-12-11T04:50:16.055Z,25.83
2022-12-11T04:52:44.717Z,28.20
2022-12-11T04:55:13.557Z,20.05
2022-12-11T04:57:42.211Z,30.67
2022-12-11T05:00:11.883Z,29.65
2022-12-11T05:02:41.685Z,24.30
2022-12-11T05:05:11.783Z,21.27
2022-12-11T05:07:41.067Z,25.70
2022-12-11T05:10:09.754Z,16.80
2022-12-11T05:12:38.284Z,20.95
2022-12-11T05:15:07.253Z,22.60
2022-12-11T05:17:35.615Z,20.83
2022-12-11T05:20:04.280Z,27.00
2022-12-11T05:22:32.724Z,27.42
2022-12-11T05:25:01.179Z,36.60
2022-12-11T05:27:29.746Z,25.90
2022-12-11T05:29:59.728Z,20.63
2022-12-11T05:32:28.784Z,21.10
2022-12-11T05:34:57.339Z,23.67
2022-12-11T05:37:25.750Z,20.77
2022-12-11T05:39:54.210Z,15.63
2022-12-11T05:42:27.138Z,19.95
2022-12-11T05:44:57.343Z,19.95
2022-12-11T05:47:25.827Z,20.02
2022-12-11T05:49:54.276Z,16.55
2022-12-11T05:52:22.902Z,17.63
2022-12-11T05:54:51.289Z,23.60
2022-12-11T05:57:19.713Z,16.63
2022-12-11T05:59:48.129Z,20.45
2022-12-11T06:02:16.680Z,21.85
2022-12-11T06:04:45.200Z,24.50
2022-12-11T06:07:13.883Z,18.15
2022-12-11T06:09:42.342Z,28.38
2022-12-11T06:12:10.681Z,21.15
2022-12-11T06:14:39.134Z,20.38
2022-12-11T06:17:07.563Z,24.10
2022-12-11T06:19:37.105Z,25.15
2022-12-11T06:22:05.625Z,23.17
2022-12-11T06:24:34.026Z,24.42
2022-12-11T06:27:02.441Z,19.92
2022-12-11T06:29:30.874Z,17.88
2022-12-11T06:31:59.351Z,17.50
2022-12-11T06:34:28.034Z,22.33
2022-12-11T06:36:56.519Z,17.67
2022-12-11T06:39:24.975Z,18.52
2022-12-11T06:41:54.235Z,16.95
2022-12-11T06:44:22.706Z,19.92
2022-12-11T06:46:51.137Z,22.52
2022-12-11T06:49:19.589Z,17.85
2022-12-11T06:51:48.022Z,21.25
2022-12-11T06:54:16.534Z,18.40
2022-12-11T06:56:45.066Z,19.52
2022-12-11T06:59:13.456Z,18.20
2022-12-11T07:01:41.916Z,19.95
2022-12-11T07:04:10.322Z,19.40
2022-12-11T07:06:39.748Z,35.17
2022-12-11T07:09:08.360Z,26.75
2022-12-11T07:11:36.721Z,22.83
2022-12-11T07:14:06.150Z,23.02
2022-12-11T07:16:34.660Z,23.73
2022-12-11T07:19:03.261Z,28.67
2022-12-11T07:21:32.197Z,31.65
2022-12-11T07:24:00.902Z,26.10
2022-12-11T07:26:29.747Z,33.53
2022-12-11T07:28:59.431Z,23.90
2022-12-11T07:31:29.578Z,28.92
2022-12-11T07:34:01.060Z,22.45
2022-12-11T07:36:29.821Z,26.63
2022-12-11T07:38:59.631Z,23.75
2022-12-11T07:41:28.784Z,40.13
2022-12-11T07:43:59.537Z,35.75
2022-12-11T07:46:29.999Z,53.40
2022-12-11T07:49:00.831Z,22.27
2022-12-11T07:51:35.549Z,23.35
2022-12-11T07:54:10.674Z,30.35
2022-12-11T07:56:41.914Z,32.30
2022-12-11T07:59:12.877Z,35.22
2022-12-11T08:01:42.520Z,26.98
2022-12-11T08:04:12.141Z,28.35
2022-12-11T08:06:42.598Z,22.73
2022-12-11T08:09:20.390Z,27.95
2022-12-11T08:11:50.659Z,28.65
2022-12-11T08:14:20.306Z,38.17
2022-12-11T08:16:48.960Z,28.38
2022-12-11T08:19:18.020Z,29.40
2022-12-11T08:21:46.880Z,28.17
2022-12-11T08:24:20.147Z,19.42
2022-12-11T08:26:48.828Z,17.48
2022-12-11T08:29:17.441Z,31.38
2022-12-11T08:31:45.911Z,23.77
2022-12-11T08:34:14.489Z,23.25
2022-12-11T08:36:43.982Z,32.35
2022-12-11T08:39:12.460Z,24.08
2022-12-11T08:41:41.993Z,17.85
2022-12-11T08:44:16.367Z,26.05
2022-12-11T08:46:45.871Z,33.42
2022-12-11T08:49:14.291Z,33.28
2022-12-11T08:51:42.787Z,27.33
2022-12-11T08:54:11.750Z,26.85
2022-12-11T08:56:40.287Z,30.45
2022-12-11T08:59:08.654Z,24.88
2022-12-11T09:01:37.246Z,31.45
2022-12-11T09:04:05.628Z,33.13
2022-12-11T09:06:34.017Z,31.85
2022-12-11T09:09:04.623Z,27.63
2022-12-11T09:11:35.828Z,30.90
2022-12-11T09:14:07.873Z,29.77
2022-12-11T09:19:17.629Z,24.45
2022-12-11T09:21:46.113Z,31.13
2022-12-11T09:24:15.589Z,29.83
2022-12-11T09:26:44.084Z,24.38
2022-12-11T09:29:13.091Z,31.23
2022-12-11T09:31:42.204Z,26.27
2022-12-11T09:34:13.229Z,27.35
2022-12-11T09:36:44.278Z,29.40
2022-12-11T09:39:15.341Z,28.25
2022-12-11T09:42:18.572Z,45.03
2022-12-11T09:44:51.864Z,32.80
2022-12-11T09:47:32.022Z,28.98
2022-12-11T09:50:03.503Z,24.08
2022-12-11T09:52:37.394Z,23.23
2022-12-11T09:55:19.465Z,23.02
2022-12-11T09:57:56.963Z,29.85
2022-12-11T10:00:47.153Z,46.67
2022-12-11T10:03:34.045Z,44.13
2022-12-11T10:06:24.064Z,32.80
2022-12-11T10:09:19.524Z,22.35
2022-12-11T10:12:27.912Z,45.30
2022-12-11T10:15:26.137Z,44.70
2022-12-11T10:18:04.361Z,85.35
2022-12-11T10:20:39.122Z,26.85
2022-12-11T10:23:10.265Z,33.53
2022-12-11T10:25:48.579Z,29.20
2022-12-11T10:28:19.934Z,30.63
2022-12-11T10:31:10.827Z,29.33
2022-12-11T10:33:41.926Z,77.80
2022-12-11T10:36:13.549Z,48.72
2022-12-11T10:38:45.031Z,26.27
2022-12-11T10:41:24.575Z,62.53
2022-12-11T10:43:53.678Z,41.60
2022-12-11T10:46:23.566Z,43.85
2022-12-11T10:48:55.381Z,35.20
2022-12-11T10:51:44.195Z,21.48
2022-12-11T10:54:33.748Z,65.70
2022-12-11T10:57:04.592Z,36.42
2022-12-11T10:59:40.619Z,35.15
2022-12-11T11:02:18.486Z,34.63
2022-12-11T11:04:47.483Z,28.98
2022-12-11T11:07:22.153Z,43.13
2022-12-11T11:10:03.686Z,34.28
2022-12-11T11:12:47.090Z,28.60
2022-12-11T11:15:28.495Z,28.70
2022-12-11T11:18:03.196Z,37.20
2022-12-11T11:20:34.239Z,31.75
2022-12-11T11:23:14.120Z,34.28
2022-12-11T11:25:51.994Z,117.93
2022-12-11T11:28:25.055Z,23.88
2022-12-11T11:31:01.541Z,25.83
2022-12-11T11:33:32.918Z,25.70
2022-12-11T11:36:07.464Z,23.57
2022-12-11T11:38:40.961Z,22.42
2022-12-11T11:41:19.908Z,21.35
2022-12-11T11:43:53.063Z,18.75
2022-12-11T11:46:35.063Z,23.05
2022-12-11T11:49:06.780Z,28.50
2022-12-11T11:51:43.109Z,24.95
2022-12-11T11:54:25.658Z,24.60
2022-12-11T11:56:56.261Z,29.83
2022-12-11T11:59:36.201Z,21.83
2022-12-11T12:02:14.808Z,33.42
2022-12-11T12:04:45.028Z,23.17
2022-12-11T12:07:44.509Z,30.30
2022-12-11T12:10:33.056Z,19.05
2022-12-11T12:13:23.838Z,24.38
2022-12-11T12:15:58.604Z,18.02
2022-12-11T12:18:51.811Z,23.73
2022-12-11T12:21:36.483Z,30.73
2022-12-11T12:24:10.955Z,17.08
2022-12-11T12:26:44.566Z,18.02
2022-12-11T12:29:26.959Z,23.17
2022-12-11T12:35:04.730Z,22.10
2022-12-11T12:38:14.695Z,15.40
2022-12-11T12:41:14.030Z,15.55
2022-12-11T12:44:19.130Z,12.07
2022-12-11T12:47:12.279Z,22.10
2022-12-11T12:49:42.942Z,19.08
2022-12-11T12:52:23.108Z,18.92
2022-12-11T12:55:14.087Z,26.27
2022-12-11T12:57:49.177Z,41.53
2022-12-11T13:00:43.994Z,17.45
2022-12-11T13:03:16.541Z,16.23
2022-12-11T13:05:56.509Z,19.20
2022-12-11T13:08:28.459Z,24.80
2022-12-11T13:11:02.434Z,19.63
2022-12-11T13:13:43.922Z,16.33
2022-12-11T13:16:15.305Z,24.27
2022-12-11T13:18:47.467Z,19.70
2022-12-11T13:21:30.902Z,18.67
2022-12-11T13:24:27.087Z,41.22
2022-12-11T13:26:56.863Z,36.67
2022-12-11T13:29:37.404Z,36.17
2022-12-11T13:32:23.899Z,17.42
2022-12-11T13:35:04.047Z,17.52
2022-12-11T13:37:38.346Z,20.27
2022-12-11T13:40:15.343Z,16.58
2022-12-11T13:42:57.371Z,35.17
2022-12-11T13:45:46.573Z,14.45
2022-12-11T13:48:32.014Z,18.58
2022-12-11T13:51:01.524Z,24.48
2022-12-11T13:53:29.944Z,21.98
2022-12-11T13:56:04.022Z,26.92
2022-12-11T13:58:38.522Z,17.95
2022-12-11T14:01:12.504Z,14.45
2022-12-11T14:03:53.576Z,40.30
2022-12-11T14:06:23.649Z,14.40
2022-12-11T14:08:55.278Z,13.98
2022-12-11T14:11:28.009Z,22.75
2022-12-11T14:13:59.741Z,13.10
2022-12-11T14:16:29.926Z,25.50
2022-12-11T14:19:05.262Z,27.25
2022-12-11T14:21:34.206Z,40.08
2022-12-11T14:24:06.455Z,14.27
2022-12-11T14:29:07.246Z,112.03
2022-12-11T14:31:39.592Z,37.53
2022-12-11T14:34:32.258Z,41.28
2022-12-11T14:39:37.613Z,18.33
2022-12-11T14:42:23.298Z,15.88
2022-12-11T14:44:51.657Z,31.95
2022-12-11T14:47:24.479Z,83.68
2022-12-11T14:50:13.173Z,53.42
2022-12-11T14:52:54.281Z,44.88
2022-12-11T14:55:26.869Z,141.68
2022-12-11T14:57:59.062Z,113.72
2022-12-11T15:03:23.767Z,49.08
2022-12-11T15:05:55.242Z,28.58
2022-12-11T15:08:34.311Z,42.42
2022-12-11T15:11:11.786Z,20.60
2022-12-11T15:13:52.727Z,23.88
2022-12-11T15:16:23.940Z,21.67
2022-12-11T15:18:54.547Z,86.67
2022-12-11T15:21:35.417Z,18.83
2022-12-11T15:24:06.010Z,21.25
2022-12-11T15:26:35.984Z,22.08
2022-12-11T15:29:27.059Z,18.65
2022-12-11T15:32:04.179Z,15.98
2022-12-11T15:34:34.918Z,17.27
2022-12-11T15:37:04.429Z,30.35
2022-12-11T15:39:32.785Z,23.20
2022-12-11T15:42:01.367Z,15.35
2022-12-11T15:44:29.787Z,25.67
2022-12-11T15:46:58.151Z,19.58
2022-12-11T15:49:26.560Z,23.75
2022-12-11T15:51:54.956Z,20.48
2022-12-11T15:54:23.432Z,19.58
2022-12-11T15:56:51.821Z,18.95
2022-12-11T15:59:20.440Z,23.33
2022-12-11T16:01:49.255Z,18.50
2022-12-11T16:04:17.713Z,16.08
2022-12-11T16:06:46.894Z,13.15
2022-12-11T16:09:15.307Z,13.48
2022-12-11T16:11:43.782Z,14.50
2022-12-11T16:14:12.151Z,13.55
2022-12-11T16:16:40.487Z,13.20
2022-12-11T16:19:08.891Z,14.18
2022-12-11T16:21:37.460Z,19.45
2022-12-11T16:24:06.228Z,15.02
2022-12-11T16:26:34.714Z,17.98
2022-12-11T16:29:03.144Z,13.52
2022-12-11T16:31:31.642Z,24.70
2022-12-11T16:34:00.024Z,23.35
2022-12-11T16:36:28.661Z,19.35
2022-12-11T16:38:59.987Z,16.60
2022-12-11T16:41:28.370Z,16.90
2022-12-11T16:43:56.811Z,13.98
2022-12-11T16:46:25.626Z,23.95
2022-12-11T16:48:54.005Z,20.30
2022-12-11T16:51:22.591Z,26.80
2022-12-11T16:53:51.013Z,46.65
2022-12-11T16:56:19.497Z,18.10
2022-12-11T16:58:48.258Z,19.02
2022-12-11T17:01:17.826Z,19.40
2022-12-11T17:03:46.643Z,17.55
2022-12-11T17:06:17.561Z,21.80
2022-12-11T17:08:46.610Z,20.00
2022-12-11T17:11:17.754Z,24.80
2022-12-11T17:13:46.173Z,28.48
2022-12-11T17:16:16.702Z,26.83
2022-12-11T17:18:46.183Z,27.45
2022-12-11T17:21:17.314Z,26.90
2022-12-11T17:23:46.730Z,24.02
2022-12-11T17:26:16.435Z,20.42
2022-12-11T17:28:45.141Z,26.08
2022-12-11T17:31:16.652Z,28.90
2022-12-11T17:33:46.652Z,32.42
2022-12-11T17:36:20.809Z,30.90
2022-12-11T17:38:50.036Z,30.60
2022-12-11T17:41:21.161Z,22.98
2022-12-11T17:43:51.868Z,21.08
2022-12-11T17:46:20.701Z,23.15
2022-12-11T17:48:49.663Z,42.67
2022-12-11T17:51:23.951Z,23.77
2022-12-11T17:53:55.655Z,40.15
2022-12-11T17:56:24.178Z,23.73
2022-12-11T17:58:52.796Z,28.02
2022-12-11T18:01:21.469Z,149.18
2022-12-11T18:03:50.054Z,79.00
2022-12-11T18:06:18.543Z,86.60
2022-12-11T18:08:46.949Z,21.58
2022-12-11T18:11:18.503Z,39.38
2022-12-11T18:13:48.309Z,26.02
2022-12-11T18:16:20.283Z,33.53
2022-12-11T18:18:50.452Z,33.15
2022-12-11T18:21:25.261Z,20.55
2022-12-11T18:23:53.903Z,40.25
2022-12-11T18:26:22.609Z,19.92
2022-12-11T18:28:52.132Z,28.20
2022-12-11T18:31:22.241Z,25.13
2022-12-11T18:33:51.415Z,39.55
2022-12-11T18:36:21.233Z,45.10
2022-12-11T18:38:49.857Z,35.60
2022-12-11T18:41:19.958Z,52.13
2022-12-11T18:43:48.483Z,29.73
2022-12-11T18:46:20.628Z,47.03
2022-12-11T18:51:23.691Z,65.38
2022-12-11T18:53:52.826Z,61.17
2022-12-11T18:56:21.987Z,34.03
2022-12-11T18:58:50.860Z,28.40
2022-12-11T19:01:26.402Z,37.80
2022-12-11T19:04:02.015Z,29.92
2022-12-11T19:06:33.272Z,55.90
2022-12-11T19:09:03.712Z,45.42
2022-12-11T19:11:33.424Z,63.35
2022-12-11T19:14:02.217Z,56.72
2022-12-11T19:16:34.888Z,58.50
2022-12-11T19:19:07.083Z,65.82
2022-12-11T19:24:08.435Z,36.42
2022-12-11T19:26:37.035Z,36.42
2022-12-11T19:29:06.259Z,26.50
2022-12-11T19:31:35.019Z,30.55
2022-12-11T19:34:03.472Z,22.38
2022-12-11T19:36:33.628Z,30.63
2022-12-11T19:39:04.272Z,32.25
2022-12-11T19:41:36.853Z,32.65
2022-12-11T19:44:05.402Z,23.77
2022-12-11T19:46:34.253Z,26.10
2022-12-11T19:49:02.829Z,27.52
2022-12-11T19:51:34.285Z,24.35
2022-12-11T19:54:04.584Z,25.95
2022-12-11T19:56:34.317Z,21.70
2022-12-11T19:59:05.131Z,27.85
2022-12-11T20:01:36.400Z,37.83
2022-12-11T20:04:07.850Z,27.30
2022-12-11T20:06:39.332Z,25.70
2022-12-11T20:09:12.706Z,35.22
2022-12-11T20:11:43.558Z,38.92
2022-12-11T20:14:22.600Z,30.77
2022-12-11T20:17:10.501Z,25.17
2022-12-11T20:19:40.869Z,25.50
2022-12-11T20:22:09.480Z,38.15
2022-12-11T20:24:37.935Z,30.10
2022-12-11T20:27:06.392Z,27.67
2022-12-11T20:29:34.878Z,25.35
2022-12-11T20:32:03.298Z,25.92
2022-12-11T20:34:31.803Z,27.85
2022-12-11T20:37:00.307Z,22.65
2022-12-11T20:39:29.213Z,22.98
2022-12-11T20:41:57.641Z,24.30
2022-12-11T20:44:26.045Z,27.45
2022-12-11T20:46:54.650Z,32.38
2022-12-11T20:49:23.091Z,26.17
2022-12-11T20:51:52.016Z,25.65
2022-12-11T20:54:20.453Z,24.85
2022-12-11T20:56:48.916Z,31.05
2022-12-11T20:59:17.856Z,25.90
2022-12-11T21:01:46.409Z,24.15
2022-12-11T21:04:15.408Z,24.02
2022-12-11T21:06:43.833Z,29.33
2022-12-11T21:09:15.017Z,22.70
2022-12-11T21:11:43.990Z,29.30
2022-12-11T21:14:13.122Z,27.80
2022-12-11T21:16:42.167Z,25.75
2022-12-11T21:19:16.654Z,40.58
2022-12-11T21:21:46.372Z,76.22
2022-12-11T21:24:23.541Z,28.65
2022-12-11T21:26:55.277Z,29.20
2022-12-11T21:29:26.206Z,26.80
2022-12-11T21:31:55.104Z,23.45
2022-12-11T21:34:25.587Z,25.60
2022-12-11T21:36:56.768Z,23.08
2022-12-11T21:39:28.164Z,29.43
2022-12-11T21:41:58.072Z,25.65
2022-12-11T21:47:16.033Z,34.60
2022-12-11T21:49:44.457Z,28.48
2022-12-11T21:52:13.951Z,29.13
2022-12-11T21:54:42.613Z,36.95
2022-12-11T21:57:11.053Z,25.92
2022-12-11T21:59:39.402Z,23.38
2022-12-11T22:02:07.820Z,28.85
2022-12-11T22:04:37.379Z,27.60
2022-12-11T22:07:05.916Z,41.35
2022-12-11T22:09:34.372Z,41.33
2022-12-11T22:12:02.899Z,26.40
2022-12-11T22:14:31.403Z,86.03
2022-12-11T22:16:59.898Z,34.83
2022-12-11T22:19:32.532Z,39.10
2022-12-11T22:22:01.317Z,35.80
2022-12-11T22:24:31.166Z,44.10
2022-12-11T22:26:59.752Z,83.10
2022-12-11T22:29:28.326Z,50.85
2022-12-11T22:31:56.955Z,37.50
2022-12-11T22:34:25.495Z,103.15
2022-12-11T22:36:54.197Z,83.82
2022-12-11T22:39:22.952Z,102.00
2022-12-11T22:41:51.410Z,40.47
2022-12-11T22:44:21.347Z,35.38
2022-12-11T22:46:50.675Z,37.42
2022-12-11T22:49:19.814Z,36.72
2022-12-11T22:51:49.133Z,30.52
2022-12-11T22:54:17.655Z,35.50
2022-12-11T22:56:46.078Z,39.28
2022-12-11T22:59:15.197Z,37.95
2022-12-11T23:01:43.899Z,27.73
2022-12-11T23:04:12.493Z,27.13
2022-12-11T23:06:41.298Z,28.17
2022-12-11T23:09:11.190Z,23.50
2022-12-11T23:11:40.097Z,24.98
2022-12-11T23:14:13.954Z,26.17
2022-12-11T23:16:43.545Z,27.35
2022-12-11T23:19:12.179Z,31.75
2022-12-11T23:21:41.015Z,34.28
2022-12-11T23:24:10.320Z,25.73
2022-12-11T23:26:39.131Z,50.17
2022-12-11T23:29:07.650Z,35.97
2022-12-11T23:31:36.304Z,32.05
2022-12-11T23:34:04.844Z,34.35
2022-12-11T23:36:33.434Z,50.08
2022-12-11T23:39:02.103Z,41.88
2022-12-11T23:41:30.759Z,34.42
2022-12-11T23:43:59.168Z,27.95
2022-12-11T23:46:27.737Z,39.95
2022-12-11T23:48:56.359Z,50.22
2022-12-11T23:51:25.844Z,24.80
2022-12-11T23:53:54.720Z,47.92
2022-12-11T23:56:26.331Z,37.70
2022-12-11T23:58:55.606Z,29.98
